Airfield :
LOGIN :

Register | Disclaimer

   EN    FR    IT 

 










Legend :    VFR   Marginal VFR   IFR   Intensive IFR   Very Intensive IFR
Visi :
Ceiling :
>= 8 km
>= 3000ft
5 to 8 km
1000 to 3000 ft
1500m to 5 km
500 to 1000 ft
800 to 1500m
200 to 500 ft
< 800m
< 200 ft
Symbols :   Thunderstorms  Fog  Heavy snow  Heavy precipitations  Wind > 20 kt
SIGMETs :     Misc.  Thunderstorms  Icing  Turbulence  Mountain Waves  Volcanic Ashes







- Airport Elevation : 1300 ft
- IATA code : LIG
- Download approach charts


LFBL - Limoges

CURRENT METAR :
  • 272300Z AUTO 00000KT 9999 VCTS ///CB 17/14 Q1016 TEMPO NSW

EXPIRED METARs :
  • 272230Z AUTO VRB01KT CAVOK 17/14 Q1016 TEMPO SCT060CB
  • 272200Z AUTO 02004KT CAVOK 17/14 Q1015 TEMPO SCT060CB
  • 272130Z AUTO 03006KT 9999 ///TCU 17/14 Q1015 TEMPO SCT060CB
  • 272100Z AUTO 03005KT 9999 ///TCU 17/14 Q1016 TEMPO SCT060CB
  • 272030Z AUTO 03006KT 9999 ///TCU 17/14 Q1016 TEMPO SCT060CB

TAF TAF LFBL
Valid from the 27 at 18:00 until the 28 at 18:00 UTC


271700Z 2718/2818 06005KT CAVOK
TEMPO 2718/2818 SCT050TCU BKN100
PROB30
TEMPO 2718/2818 -SHRA SCT060CB
PROB40
TEMPO 2811/2818 4000 TSRA SCT020CB BKN050
ATIS : +33 5 55 48 40 37
No reported NOTAMs for that airfield.
1 SIGMET reported for the Bordeaux FIR (LFBB) :
 
Embedded thunderstorms and hail
LFBB SIGMET 9 VALID 272200/280100 LFPW
LFBB BORDEAUX FIR/UIR EMBD TSGR OBS WI N4515 E00115 - N4345 E00030 - N4400 W00030 - N4530 E00030 - N4515 E00115 TOP FL360 MOV NW 20KT NC=



MET'MAP, your aeronautical weather chart ! - Copyright ORBIFLY December 2007 - Disclaimer

ORBIFLY MET'MAP TEAM :

Programming & Development : Alexandra Zaïnal
Concept & Development : Baudouin d'Aumeries
Co-Development & Prog : Marc-Olivier Méhu
Technical & hardware support : Manuel Goepfert

Contact : metmap@orbifly.com




SOURCES & CREDITS :

   NOAA